ADDS METAR Data INFO
IDs: Format: Raw Decoded Include TAF

Data at: 2336 UTC 15 Dec 2017

KEEO 152253Z AUTO 20010KT 10SM CLR 08/M17 A3011 RMK AO2 SLP215 T00781167
KEEO 152153Z AUTO 20008KT 10SM CLR 08/M15 A3014 RMK AO2 SLP222 T00831150
KEEO 152053Z AUTO 22011KT 10SM CLR 08/M13 A3016 RMK AO2 SLP231 T00781133 56035
KEEO 151953Z AUTO 10SM CLR 07/M11 A3019 RMK AO2 SLP244 T00671111
KEEO 151853Z AUTO 00000KT 10SM CLR 04/M10 A3024 RMK AO2 SLP267 T00391100
KEEO 151753Z AUTO 00000KT 10SM CLR M01/M09 A3029 RMK AO2 SLP297 T10061094 11006 21139 58009
KEEO 151653Z AUTO 00000KT 10SM CLR M03/M10 A3032 RMK AO2 SLP315 T10331100
KEEO 151553Z AUTO 00000KT 10SM CLR M07/M11 A3033 RMK AO2 SLP327 T10671106
KEEO 151453Z AUTO 00000KT 10SM CLR M13/M16 A3032 RMK AO2 SLP338 T11281156 55000
KEEO 151353Z AUTO 06003KT 10SM CLR M13/M16 A3031 RMK AO2 SLP333 T11331161
KEEO 151253Z AUTO 00000KT 10SM CLR M12/M15 A3032 RMK AO2 SLP328 T11221150
KEEO 151153Z AUTO 07003KT 10SM CLR M12/M14 A3032 RMK AO2 SLP316 T11171139 11094 21122 58011
KEEO 151053Z AUTO 06003KT 10SM CLR M11/M14 A3034 RMK AO2 SLP309 T11111144
KEEO 150953Z AUTO VRB04KT 10SM CLR M11/M13 A3036 RMK AO2 SLP318 T11061133
KEEO 150853Z AUTO 00000KT 10SM CLR M11/M14 A3036 RMK AO2 SLP320 T11111139 55004
KEEO 150753Z AUTO 06003KT 10SM CLR M11/M14 A3035 RMK AO2 SLP322 T11111139
KEEO 150653Z AUTO 07003KT 10SM CLR M11/M13 A3036 RMK AO2 SLP321 T11061133 400171111
KEEO 150553Z AUTO 05004KT 10SM CLR M11/M13 A3037 RMK AO2 SLP328 T11111133 11022 21111 53004
KEEO 150453Z AUTO 08005KT 10SM CLR M09/M12 A3037 RMK AO2 SLP323 T10941122
KEEO 150353Z AUTO 02005KT 10SM CLR M09/M12 A3036 RMK AO2 SLP323 T10891117
KEEO 150253Z AUTO 00000KT 10SM CLR M08/M11 A3036 RMK AO2 SLP324 T10831111 53012
KEEO 150153Z AUTO 00000KT 10SM CLR M07/M11 A3034 RMK AO2 SLP311 T10671106
KEEO 150053Z AUTO 05010KT 10SM CLR M06/M09 A3031 RMK AO2 SLP298 T10561094
KEEO 142353Z AUTO 02005KT 10SM CLR M02/M08 A3031 RMK AO2 SLP286 T10221083 10017 21022 53000
KEEO 142253Z AUTO 03003KT 10SM CLR 02/M08 A3031 RMK AO2 SLP276 T00171083
KEEO 142153Z AUTO 02009KT 10SM CLR 02/M08 A3031 RMK AO2 SLP272 T00171078
KEEO 142053Z AUTO 06009KT 10SM BKN042 BKN048 01/M07 A3031 RMK AO2 SLP276 T00061072 56005
KEEO 141953Z AUTO 03009G16KT 10SM SCT038 00/M07 A3032 RMK AO2 SLP280 T00001072
KEEO 141853Z AUTO 04012G19KT 10SM SCT039 00/M08 A3032 RMK AO2 SLP281 T00001078
KEEO 141753Z AUTO 00000KT 10SM CLR M01/M07 A3033 RMK AO2 SLP285 T10061067 10006 21033 50016
KEEO 141653Z AUTO 03013KT 10SM CLR M01/M06 A3033 RMK AO2 SLP283 T10111061
KEEO 141610Z AUTO 01008KT 10SM SCT024 M03/M07 A3031 RMK AO2 T10281067
KEEO 141553Z AUTO 04008KT 10SM BKN025 M03/M07 A3030 RMK AO2 SLP272 T10281067
KEEO 141453Z AUTO 05008KT 10SM SCT023 M03/M07 A3027 RMK AO2 SLP265 T10331072 51014
KEEO 141353Z AUTO 05011KT 10SM BKN021 BKN037 M03/M07 A3026 RMK AO2 SLP259 T10281067
KEEO 141349Z AUTO 08009KT 10SM BKN021 BKN035 M03/M07 A3025 RMK AO2
KEEO 141303Z AUTO 36009G16KT 10SM SCT019 BKN039 BKN049 M03/M06 A3023 RMK AO2 T10281061
KEEO 141253Z AUTO VRB04KT 10SM BKN019 BKN038 M02/M06 A3022 RMK AO2 SLP237 T10221061
KEEO 141222Z AUTO 01012KT 10SM SCT021 BKN036 M03/M06 A3020 RMK AO2 T10281061
KEEO 141153Z AUTO 07007KT 020V110 10SM BKN021 BKN047 M02/M06 A3018 RMK AO2 SLP219 60003 70003 T10171056 11006 21022 51009
KEEO 141150Z AUTO 01005KT 10SM BKN021 BKN047 M02/M06 A3018 RMK AO2